sensor_id;sensor_type;location;lat;lon;timestamp;P1;durP1;ratioP1;P2;durP2;ratioP2
7525;SDS011;3804;50.860;6.208;2022-10-13T00:00:33;14.30;;;7.90;;
7525;SDS011;3804;50.860;6.208;2022-10-13T00:03:00;13.80;;;7.80;;
7525;SDS011;3804;50.860;6.208;2022-10-13T00:05:28;12.27;;;7.30;;
7525;SDS011;3804;50.860;6.208;2022-10-13T00:07:55;13.00;;;7.43;;
7525;SDS011;3804;50.860;6.208;2022-10-13T00:10:22;14.70;;;7.43;;
7525;SDS011;3804;50.860;6.208;2022-10-13T00:12:48;9.70;;;7.63;;
7525;SDS011;3804;50.860;6.208;2022-10-13T00:15:16;12.50;;;6.97;;
7525;SDS011;3804;50.860;6.208;2022-10-13T00:17:43;15.67;;;7.70;;
7525;SDS011;3804;50.860;6.208;2022-10-13T00:20:10;10.27;;;7.60;;
7525;SDS011;3804;50.860;6.208;2022-10-13T00:22:37;12.43;;;7.87;;
7525;SDS011;3804;50.860;6.208;2022-10-13T00:25:04;11.87;;;7.03;;
7525;SDS011;3804;50.860;6.208;2022-10-13T00:27:30;14.93;;;8.27;;
7525;SDS011;3804;50.860;6.208;2022-10-13T00:29:57;10.93;;;7.07;;
7525;SDS011;3804;50.860;6.208;2022-10-13T00:32:24;12.63;;;7.70;;
7525;SDS011;3804;50.860;6.208;2022-10-13T00:34:50;15.17;;;7.23;;
7525;SDS011;3804;50.860;6.208;2022-10-13T00:37:18;9.00;;;7.10;;
7525;SDS011;3804;50.860;6.208;2022-10-13T00:39:44;12.53;;;7.37;;
7525;SDS011;3804;50.860;6.208;2022-10-13T00:42:12;13.57;;;6.90;;
7525;SDS011;3804;50.860;6.208;2022-10-13T00:47:29;11.13;;;6.80;;
7525;SDS011;3804;50.860;6.208;2022-10-13T00:49:56;9.60;;;7.00;;
7525;SDS011;3804;50.860;6.208;2022-10-13T00:52:23;12.80;;;7.27;;
7525;SDS011;3804;50.860;6.208;2022-10-13T00:54:51;13.03;;;6.93;;
7525;SDS011;3804;50.860;6.208;2022-10-13T00:57:19;10.40;;;6.97;;
7525;SDS011;3804;50.860;6.208;2022-10-13T00:59:46;11.40;;;7.37;;
7525;SDS011;3804;50.860;6.208;2022-10-13T01:02:13;9.83;;;5.90;;
7525;SDS011;3804;50.860;6.208;2022-10-13T01:04:41;10.30;;;7.13;;
7525;SDS011;3804;50.860;6.208;2022-10-13T01:07:09;14.37;;;6.63;;
7525;SDS011;3804;50.860;6.208;2022-10-13T01:09:36;9.33;;;6.93;;
7525;SDS011;3804;50.860;6.208;2022-10-13T01:14:52;14.00;;;7.43;;
7525;SDS011;3804;50.860;6.208;2022-10-13T01:17:32;11.37;;;7.30;;
7525;SDS011;3804;50.860;6.208;2022-10-13T01:20:08;12.73;;;7.17;;
7525;SDS011;3804;50.860;6.208;2022-10-13T01:25:37;12.87;;;6.93;;
7525;SDS011;3804;50.860;6.208;2022-10-13T01:28:11;11.07;;;6.43;;
7525;SDS011;3804;50.860;6.208;2022-10-13T01:31:01;11.43;;;6.30;;
7525;SDS011;3804;50.860;6.208;2022-10-13T01:33:37;14.50;;;7.30;;
7525;SDS011;3804;50.860;6.208;2022-10-13T01:41:16;11.93;;;7.23;;
7525;SDS011;3804;50.860;6.208;2022-10-13T01:43:46;13.53;;;6.53;;
7525;SDS011;3804;50.860;6.208;2022-10-13T01:48:40;10.53;;;6.80;;
7525;SDS011;3804;50.860;6.208;2022-10-13T01:51:08;10.83;;;6.87;;
7525;SDS011;3804;50.860;6.208;2022-10-13T01:53:37;11.73;;;6.83;;
7525;SDS011;3804;50.860;6.208;2022-10-13T01:56:04;11.37;;;6.27;;
7525;SDS011;3804;50.860;6.208;2022-10-13T01:58:32;12.20;;;6.53;;
7525;SDS011;3804;50.860;6.208;2022-10-13T02:03:30;11.70;;;6.63;;
7525;SDS011;3804;50.860;6.208;2022-10-13T02:06:09;13.17;;;7.63;;
7525;SDS011;3804;50.860;6.208;2022-10-13T02:11:24;13.03;;;6.97;;
7525;SDS011;3804;50.860;6.208;2022-10-13T02:13:58;8.83;;;6.80;;
7525;SDS011;3804;50.860;6.208;2022-10-13T02:16:27;13.03;;;5.97;;
7525;SDS011;3804;50.860;6.208;2022-10-13T02:18:55;9.63;;;6.50;;
7525;SDS011;3804;50.860;6.208;2022-10-13T02:21:22;8.57;;;5.90;;
7525;SDS011;3804;50.860;6.208;2022-10-13T02:23:49;12.67;;;6.57;;
7525;SDS011;3804;50.860;6.208;2022-10-13T02:26:18;11.27;;;6.87;;
7525;SDS011;3804;50.860;6.208;2022-10-13T02:28:49;12.90;;;6.33;;
7525;SDS011;3804;50.860;6.208;2022-10-13T02:31:16;9.87;;;5.67;;
7525;SDS011;3804;50.860;6.208;2022-10-13T02:33:42;7.53;;;5.80;;
7525;SDS011;3804;50.860;6.208;2022-10-13T02:36:09;9.70;;;6.47;;
7525;SDS011;3804;50.860;6.208;2022-10-13T02:38:36;10.00;;;5.90;;
7525;SDS011;3804;50.860;6.208;2022-10-13T02:41:02;9.70;;;5.67;;
7525;SDS011;3804;50.860;6.208;2022-10-13T02:43:29;10.77;;;5.87;;
7525;SDS011;3804;50.860;6.208;2022-10-13T02:45:55;14.50;;;6.90;;
7525;SDS011;3804;50.860;6.208;2022-10-13T02:48:22;9.67;;;6.60;;
7525;SDS011;3804;50.860;6.208;2022-10-13T02:50:48;8.43;;;6.17;;
7525;SDS011;3804;50.860;6.208;2022-10-13T02:53:15;8.60;;;5.93;;
7525;SDS011;3804;50.860;6.208;2022-10-13T02:55:42;13.00;;;6.53;;
7525;SDS011;3804;50.860;6.208;2022-10-13T02:58:08;8.57;;;6.47;;
7525;SDS011;3804;50.860;6.208;2022-10-13T03:00:35;13.03;;;6.33;;
7525;SDS011;3804;50.860;6.208;2022-10-13T03:03:05;11.03;;;6.40;;
7525;SDS011;3804;50.860;6.208;2022-10-13T03:05:32;9.67;;;6.77;;
7525;SDS011;3804;50.860;6.208;2022-10-13T03:07:58;8.93;;;6.17;;
7525;SDS011;3804;50.860;6.208;2022-10-13T03:10:25;8.80;;;6.50;;
7525;SDS011;3804;50.860;6.208;2022-10-13T03:12:53;8.23;;;5.70;;
7525;SDS011;3804;50.860;6.208;2022-10-13T03:15:21;8.67;;;6.00;;
7525;SDS011;3804;50.860;6.208;2022-10-13T03:17:48;9.00;;;6.37;;
7525;SDS011;3804;50.860;6.208;2022-10-13T03:20:14;9.67;;;6.50;;
7525;SDS011;3804;50.860;6.208;2022-10-13T03:22:41;12.30;;;6.83;;
7525;SDS011;3804;50.860;6.208;2022-10-13T03:25:14;11.70;;;6.93;;
7525;SDS011;3804;50.860;6.208;2022-10-13T03:27:42;9.73;;;7.00;;
7525;SDS011;3804;50.860;6.208;2022-10-13T03:30:09;14.57;;;6.43;;
7525;SDS011;3804;50.860;6.208;2022-10-13T03:32:37;11.13;;;6.57;;
7525;SDS011;3804;50.860;6.208;2022-10-13T03:35:04;10.40;;;6.43;;
7525;SDS011;3804;50.860;6.208;2022-10-13T03:37:32;11.30;;;6.53;;
7525;SDS011;3804;50.860;6.208;2022-10-13T03:39:58;9.67;;;6.63;;
7525;SDS011;3804;50.860;6.208;2022-10-13T03:42:25;10.50;;;6.40;;
7525;SDS011;3804;50.860;6.208;2022-10-13T03:44:52;12.53;;;6.13;;
7525;SDS011;3804;50.860;6.208;2022-10-13T03:47:21;10.90;;;6.37;;
7525;SDS011;3804;50.860;6.208;2022-10-13T03:49:48;9.73;;;6.17;;
7525;SDS011;3804;50.860;6.208;2022-10-13T03:52:15;11.40;;;6.63;;
7525;SDS011;3804;50.860;6.208;2022-10-13T03:54:42;9.23;;;6.13;;
7525;SDS011;3804;50.860;6.208;2022-10-13T03:57:08;11.33;;;6.97;;
7525;SDS011;3804;50.860;6.208;2022-10-13T03:59:35;10.53;;;6.70;;
7525;SDS011;3804;50.860;6.208;2022-10-13T04:02:02;11.20;;;6.20;;
7525;SDS011;3804;50.860;6.208;2022-10-13T04:04:29;9.73;;;5.73;;
7525;SDS011;3804;50.860;6.208;2022-10-13T04:06:56;9.17;;;6.30;;
7525;SDS011;3804;50.860;6.208;2022-10-13T04:09:23;12.60;;;7.23;;
7525;SDS011;3804;50.860;6.208;2022-10-13T04:11:50;10.30;;;6.47;;
7525;SDS011;3804;50.860;6.208;2022-10-13T04:14:17;9.57;;;5.90;;
7525;SDS011;3804;50.860;6.208;2022-10-13T04:16:44;11.57;;;6.67;;
7525;SDS011;3804;50.860;6.208;2022-10-13T04:19:11;9.93;;;6.73;;
7525;SDS011;3804;50.860;6.208;2022-10-13T04:21:38;9.80;;;6.90;;
7525;SDS011;3804;50.860;6.208;2022-10-13T04:24:05;8.97;;;6.37;;
7525;SDS011;3804;50.860;6.208;2022-10-13T04:26:33;9.87;;;6.73;;
7525;SDS011;3804;50.860;6.208;2022-10-13T04:29:05;9.70;;;6.57;;
7525;SDS011;3804;50.860;6.208;2022-10-13T04:31:33;14.10;;;6.33;;
7525;SDS011;3804;50.860;6.208;2022-10-13T04:33:59;12.60;;;7.37;;
7525;SDS011;3804;50.860;6.208;2022-10-13T04:36:26;9.87;;;7.23;;
7525;SDS011;3804;50.860;6.208;2022-10-13T04:38:53;13.23;;;6.73;;
7525;SDS011;3804;50.860;6.208;2022-10-13T04:41:20;11.40;;;7.40;;
7525;SDS011;3804;50.860;6.208;2022-10-13T04:43:47;14.63;;;8.30;;
7525;SDS011;3804;50.860;6.208;2022-10-13T04:46:19;10.37;;;6.97;;
7525;SDS011;3804;50.860;6.208;2022-10-13T04:48:47;13.20;;;7.93;;
7525;SDS011;3804;50.860;6.208;2022-10-13T04:51:15;12.57;;;7.47;;
7525;SDS011;3804;50.860;6.208;2022-10-13T04:53:42;11.67;;;7.43;;
7525;SDS011;3804;50.860;6.208;2022-10-13T04:56:12;19.23;;;7.50;;
7525;SDS011;3804;50.860;6.208;2022-10-13T04:58:41;15.17;;;8.00;;
7525;SDS011;3804;50.860;6.208;2022-10-13T05:01:11;9.90;;;7.50;;
7525;SDS011;3804;50.860;6.208;2022-10-13T05:03:43;11.93;;;8.27;;
7525;SDS011;3804;50.860;6.208;2022-10-13T05:06:16;11.23;;;7.73;;
7525;SDS011;3804;50.860;6.208;2022-10-13T05:08:47;13.27;;;8.03;;
7525;SDS011;3804;50.860;6.208;2022-10-13T05:11:14;15.70;;;8.50;;
7525;SDS011;3804;50.860;6.208;2022-10-13T05:13:41;14.30;;;8.90;;
7525;SDS011;3804;50.860;6.208;2022-10-13T05:16:11;15.47;;;8.73;;
7525;SDS011;3804;50.860;6.208;2022-10-13T05:18:38;12.60;;;8.20;;
7525;SDS011;3804;50.860;6.208;2022-10-13T05:21:15;14.57;;;8.33;;
7525;SDS011;3804;50.860;6.208;2022-10-13T05:23:42;12.27;;;8.50;;
7525;SDS011;3804;50.860;6.208;2022-10-13T05:26:11;14.13;;;8.67;;
7525;SDS011;3804;50.860;6.208;2022-10-13T05:28:38;13.33;;;9.07;;
7525;SDS011;3804;50.860;6.208;2022-10-13T05:31:15;14.00;;;8.03;;
7525;SDS011;3804;50.860;6.208;2022-10-13T05:33:43;14.47;;;9.07;;
7525;SDS011;3804;50.860;6.208;2022-10-13T05:36:11;13.87;;;8.90;;
7525;SDS011;3804;50.860;6.208;2022-10-13T05:38:38;14.13;;;8.70;;
7525;SDS011;3804;50.860;6.208;2022-10-13T05:41:06;12.07;;;8.50;;
7525;SDS011;3804;50.860;6.208;2022-10-13T05:43:33;16.83;;;10.13;;
7525;SDS011;3804;50.860;6.208;2022-10-13T05:45:59;13.33;;;9.03;;
7525;SDS011;3804;50.860;6.208;2022-10-13T05:48:27;18.10;;;12.27;;
7525;SDS011;3804;50.860;6.208;2022-10-13T05:50:54;25.70;;;16.00;;
7525;SDS011;3804;50.860;6.208;2022-10-13T05:53:22;16.07;;;10.83;;
7525;SDS011;3804;50.860;6.208;2022-10-13T05:55:50;23.97;;;13.80;;
7525;SDS011;3804;50.860;6.208;2022-10-13T05:58:17;19.13;;;13.13;;
7525;SDS011;3804;50.860;6.208;2022-10-13T06:00:44;29.33;;;21.57;;
7525;SDS011;3804;50.860;6.208;2022-10-13T06:03:20;17.40;;;11.30;;
7525;SDS011;3804;50.860;6.208;2022-10-13T06:05:48;15.23;;;9.87;;
7525;SDS011;3804;50.860;6.208;2022-10-13T06:08:15;18.63;;;10.93;;
7525;SDS011;3804;50.860;6.208;2022-10-13T06:10:42;12.67;;;9.47;;
7525;SDS011;3804;50.860;6.208;2022-10-13T06:13:10;15.33;;;10.20;;
7525;SDS011;3804;50.860;6.208;2022-10-13T06:15:36;16.13;;;10.03;;
7525;SDS011;3804;50.860;6.208;2022-10-13T06:18:07;14.27;;;9.53;;
7525;SDS011;3804;50.860;6.208;2022-10-13T06:20:35;21.43;;;15.47;;
7525;SDS011;3804;50.860;6.208;2022-10-13T06:23:01;19.50;;;12.03;;
7525;SDS011;3804;50.860;6.208;2022-10-13T06:25:28;18.63;;;11.50;;
7525;SDS011;3804;50.860;6.208;2022-10-13T06:27:55;16.20;;;9.87;;
7525;SDS011;3804;50.860;6.208;2022-10-13T06:30:22;12.57;;;10.40;;
7525;SDS011;3804;50.860;6.208;2022-10-13T06:32:49;16.17;;;9.60;;
7525;SDS011;3804;50.860;6.208;2022-10-13T06:35:16;12.40;;;9.37;;
7525;SDS011;3804;50.860;6.208;2022-10-13T06:37:43;14.17;;;9.50;;
7525;SDS011;3804;50.860;6.208;2022-10-13T06:40:11;15.13;;;9.70;;
7525;SDS011;3804;50.860;6.208;2022-10-13T06:42:38;17.13;;;10.17;;
7525;SDS011;3804;50.860;6.208;2022-10-13T06:45:09;14.23;;;9.67;;
7525;SDS011;3804;50.860;6.208;2022-10-13T06:47:39;13.90;;;9.33;;
7525;SDS011;3804;50.860;6.208;2022-10-13T06:50:06;14.47;;;9.40;;
7525;SDS011;3804;50.860;6.208;2022-10-13T06:52:39;13.27;;;9.23;;
7525;SDS011;3804;50.860;6.208;2022-10-13T06:55:09;12.97;;;9.10;;
7525;SDS011;3804;50.860;6.208;2022-10-13T06:57:38;15.03;;;8.90;;
7525;SDS011;3804;50.860;6.208;2022-10-13T07:00:06;14.33;;;8.50;;
7525;SDS011;3804;50.860;6.208;2022-10-13T07:02:36;11.57;;;8.10;;
7525;SDS011;3804;50.860;6.208;2022-10-13T07:05:05;15.73;;;8.43;;
7525;SDS011;3804;50.860;6.208;2022-10-13T07:07:33;13.60;;;8.37;;
7525;SDS011;3804;50.860;6.208;2022-10-13T07:10:01;14.03;;;8.20;;
7525;SDS011;3804;50.860;6.208;2022-10-13T07:12:28;13.47;;;8.27;;
7525;SDS011;3804;50.860;6.208;2022-10-13T07:14:56;14.40;;;8.47;;
7525;SDS011;3804;50.860;6.208;2022-10-13T07:17:24;15.37;;;9.53;;
7525;SDS011;3804;50.860;6.208;2022-10-13T07:19:53;11.73;;;9.23;;
7525;SDS011;3804;50.860;6.208;2022-10-13T07:22:39;13.33;;;9.10;;
7525;SDS011;3804;50.860;6.208;2022-10-13T07:25:07;16.40;;;9.37;;
7525;SDS011;3804;50.860;6.208;2022-10-13T07:27:40;13.10;;;9.10;;
7525;SDS011;3804;50.860;6.208;2022-10-13T07:30:09;18.57;;;9.27;;
7525;SDS011;3804;50.860;6.208;2022-10-13T07:32:37;14.30;;;8.03;;
7525;SDS011;3804;50.860;6.208;2022-10-13T07:35:10;9.90;;;6.97;;
7525;SDS011;3804;50.860;6.208;2022-10-13T07:37:37;10.03;;;6.83;;
7525;SDS011;3804;50.860;6.208;2022-10-13T07:40:11;12.67;;;7.53;;
7525;SDS011;3804;50.860;6.208;2022-10-13T07:42:48;11.70;;;7.47;;
7525;SDS011;3804;50.860;6.208;2022-10-13T07:45:17;11.63;;;7.10;;
7525;SDS011;3804;50.860;6.208;2022-10-13T07:47:44;12.77;;;7.17;;
7525;SDS011;3804;50.860;6.208;2022-10-13T07:50:14;10.00;;;6.03;;
7525;SDS011;3804;50.860;6.208;2022-10-13T07:52:45;11.57;;;7.27;;
7525;SDS011;3804;50.860;6.208;2022-10-13T07:55:16;9.63;;;6.40;;
7525;SDS011;3804;50.860;6.208;2022-10-13T07:57:45;10.37;;;6.17;;
7525;SDS011;3804;50.860;6.208;2022-10-13T08:00:56;11.97;;;6.60;;
7525;SDS011;3804;50.860;6.208;2022-10-13T08:03:46;7.53;;;5.50;;
7525;SDS011;3804;50.860;6.208;2022-10-13T08:06:39;10.27;;;5.47;;
7525;SDS011;3804;50.860;6.208;2022-10-13T08:09:11;8.47;;;5.63;;
7525;SDS011;3804;50.860;6.208;2022-10-13T08:11:39;8.43;;;5.83;;
7525;SDS011;3804;50.860;6.208;2022-10-13T08:14:11;7.63;;;5.47;;
7525;SDS011;3804;50.860;6.208;2022-10-13T08:16:38;12.67;;;5.47;;
7525;SDS011;3804;50.860;6.208;2022-10-13T08:19:07;9.07;;;5.60;;
7525;SDS011;3804;50.860;6.208;2022-10-13T08:21:34;8.87;;;5.83;;
7525;SDS011;3804;50.860;6.208;2022-10-13T08:24:20;10.83;;;5.93;;
7525;SDS011;3804;50.860;6.208;2022-10-13T08:26:50;10.53;;;6.07;;
7525;SDS011;3804;50.860;6.208;2022-10-13T08:29:17;10.80;;;5.83;;
7525;SDS011;3804;50.860;6.208;2022-10-13T08:31:48;7.57;;;5.60;;
7525;SDS011;3804;50.860;6.208;2022-10-13T08:34:35;9.53;;;6.10;;
7525;SDS011;3804;50.860;6.208;2022-10-13T08:37:02;11.87;;;6.10;;
7525;SDS011;3804;50.860;6.208;2022-10-13T08:39:29;12.23;;;5.93;;
7525;SDS011;3804;50.860;6.208;2022-10-13T08:41:56;9.13;;;6.03;;
7525;SDS011;3804;50.860;6.208;2022-10-13T08:44:33;14.90;;;6.67;;
7525;SDS011;3804;50.860;6.208;2022-10-13T08:47:27;16.47;;;6.97;;
7525;SDS011;3804;50.860;6.208;2022-10-13T08:49:56;13.83;;;6.40;;
7525;SDS011;3804;50.860;6.208;2022-10-13T08:52:41;15.23;;;7.23;;
7525;SDS011;3804;50.860;6.208;2022-10-13T08:55:18;10.57;;;6.23;;
7525;SDS011;3804;50.860;6.208;2022-10-13T08:57:47;15.30;;;6.37;;
7525;SDS011;3804;50.860;6.208;2022-10-13T09:00:18;24.23;;;7.53;;
7525;SDS011;3804;50.860;6.208;2022-10-13T09:02:50;17.60;;;7.20;;
7525;SDS011;3804;50.860;6.208;2022-10-13T09:05:35;17.00;;;6.67;;
7525;SDS011;3804;50.860;6.208;2022-10-13T09:08:04;18.03;;;7.60;;
7525;SDS011;3804;50.860;6.208;2022-10-13T09:10:45;15.67;;;6.20;;
7525;SDS011;3804;50.860;6.208;2022-10-13T09:13:17;13.67;;;7.20;;
7525;SDS011;3804;50.860;6.208;2022-10-13T09:15:45;13.23;;;7.70;;
7525;SDS011;3804;50.860;6.208;2022-10-13T09:18:15;12.83;;;6.83;;
7525;SDS011;3804;50.860;6.208;2022-10-13T09:20:43;12.73;;;7.73;;
7525;SDS011;3804;50.860;6.208;2022-10-13T09:25:41;18.93;;;8.43;;
7525;SDS011;3804;50.860;6.208;2022-10-13T09:28:15;18.60;;;8.13;;
7525;SDS011;3804;50.860;6.208;2022-10-13T09:30:42;14.40;;;7.90;;
7525;SDS011;3804;50.860;6.208;2022-10-13T09:35:39;19.60;;;8.30;;
7525;SDS011;3804;50.860;6.208;2022-10-13T09:38:12;15.10;;;8.83;;
7525;SDS011;3804;50.860;6.208;2022-10-13T09:40:41;21.77;;;9.53;;
7525;SDS011;3804;50.860;6.208;2022-10-13T09:45:57;13.97;;;7.57;;
7525;SDS011;3804;50.860;6.208;2022-10-13T09:48:26;13.77;;;8.23;;
7525;SDS011;3804;50.860;6.208;2022-10-13T09:50:53;15.40;;;8.87;;
7525;SDS011;3804;50.860;6.208;2022-10-13T09:53:31;14.93;;;8.40;;
7525;SDS011;3804;50.860;6.208;2022-10-13T09:56:11;14.40;;;8.07;;
7525;SDS011;3804;50.860;6.208;2022-10-13T09:58:47;12.10;;;7.67;;
7525;SDS011;3804;50.860;6.208;2022-10-13T10:01:17;10.47;;;7.37;;
7525;SDS011;3804;50.860;6.208;2022-10-13T10:03:46;12.43;;;7.80;;
7525;SDS011;3804;50.860;6.208;2022-10-13T10:06:14;11.53;;;7.67;;
7525;SDS011;3804;50.860;6.208;2022-10-13T10:11:37;12.00;;;7.30;;
7525;SDS011;3804;50.860;6.208;2022-10-13T10:14:14;10.03;;;8.00;;
7525;SDS011;3804;50.860;6.208;2022-10-13T10:16:43;11.73;;;7.50;;
7525;SDS011;3804;50.860;6.208;2022-10-13T10:19:17;15.20;;;7.40;;
7525;SDS011;3804;50.860;6.208;2022-10-13T10:32:51;8.47;;;6.10;;
7525;SDS011;3804;50.860;6.208;2022-10-13T10:35:08;10.63;;;7.23;;
7525;SDS011;3804;50.860;6.208;2022-10-13T10:42:58;10.57;;;7.30;;
7525;SDS011;3804;50.860;6.208;2022-10-13T10:45:27;8.90;;;7.13;;
7525;SDS011;3804;50.860;6.208;2022-10-13T10:48:00;10.90;;;7.17;;
7525;SDS011;3804;50.860;6.208;2022-10-13T10:50:28;12.90;;;6.50;;
7525;SDS011;3804;50.860;6.208;2022-10-13T10:53:08;10.77;;;7.37;;
7525;SDS011;3804;50.860;6.208;2022-10-13T10:55:46;13.20;;;8.07;;
7525;SDS011;3804;50.860;6.208;2022-10-13T10:58:23;10.00;;;6.93;;
7525;SDS011;3804;50.860;6.208;2022-10-13T11:00:58;8.80;;;6.87;;
7525;SDS011;3804;50.860;6.208;2022-10-13T11:03:34;13.97;;;8.10;;
7525;SDS011;3804;50.860;6.208;2022-10-13T11:06:03;12.43;;;8.10;;
7525;SDS011;3804;50.860;6.208;2022-10-13T11:08:42;12.47;;;8.47;;
7525;SDS011;3804;50.860;6.208;2022-10-13T11:37:25;11.87;;;8.10;;
7525;SDS011;3804;50.860;6.208;2022-10-13T11:40:01;16.43;;;7.90;;
7525;SDS011;3804;50.860;6.208;2022-10-13T11:42:34;12.30;;;7.83;;
7525;SDS011;3804;50.860;6.208;2022-10-13T11:45:13;19.87;;;8.17;;
7525;SDS011;3804;50.860;6.208;2022-10-13T11:47:52;13.43;;;7.83;;
7525;SDS011;3804;50.860;6.208;2022-10-13T11:58:15;13.70;;;7.70;;
7525;SDS011;3804;50.860;6.208;2022-10-13T12:01:16;10.33;;;6.60;;
7525;SDS011;3804;50.860;6.208;2022-10-13T12:03:37;14.47;;;7.03;;
7525;SDS011;3804;50.860;6.208;2022-10-13T12:06:43;9.60;;;7.10;;
7525;SDS011;3804;50.860;6.208;2022-10-13T12:09:04;10.67;;;6.67;;
7525;SDS011;3804;50.860;6.208;2022-10-13T12:11:35;11.20;;;7.43;;
7525;SDS011;3804;50.860;6.208;2022-10-13T12:14:04;14.23;;;6.97;;
7525;SDS011;3804;50.860;6.208;2022-10-13T12:16:32;15.20;;;7.73;;
7525;SDS011;3804;50.860;6.208;2022-10-13T12:19:09;10.63;;;6.60;;
7525;SDS011;3804;50.860;6.208;2022-10-13T12:21:48;13.20;;;7.53;;
7525;SDS011;3804;50.860;6.208;2022-10-13T12:24:15;10.57;;;7.37;;
7525;SDS011;3804;50.860;6.208;2022-10-13T12:26:42;10.80;;;7.37;;
7525;SDS011;3804;50.860;6.208;2022-10-13T12:29:10;11.10;;;6.97;;
7525;SDS011;3804;50.860;6.208;2022-10-13T12:31:41;10.47;;;6.93;;
7525;SDS011;3804;50.860;6.208;2022-10-13T12:36:45;14.03;;;7.70;;
7525;SDS011;3804;50.860;6.208;2022-10-13T12:39:16;10.57;;;7.57;;
7525;SDS011;3804;50.860;6.208;2022-10-13T12:41:44;13.00;;;7.33;;
7525;SDS011;3804;50.860;6.208;2022-10-13T12:44:12;14.63;;;8.07;;
7525;SDS011;3804;50.860;6.208;2022-10-13T12:49:16;11.17;;;8.23;;
7525;SDS011;3804;50.860;6.208;2022-10-13T12:51:44;11.73;;;8.00;;
7525;SDS011;3804;50.860;6.208;2022-10-13T12:54:16;11.47;;;7.23;;
7525;SDS011;3804;50.860;6.208;2022-10-13T12:56:43;14.70;;;7.60;;
7525;SDS011;3804;50.860;6.208;2022-10-13T12:59:14;11.90;;;7.03;;
7525;SDS011;3804;50.860;6.208;2022-10-13T13:01:44;13.13;;;8.60;;
7525;SDS011;3804;50.860;6.208;2022-10-13T13:04:25;16.00;;;8.80;;
7525;SDS011;3804;50.860;6.208;2022-10-13T13:06:58;14.00;;;8.83;;
7525;SDS011;3804;50.860;6.208;2022-10-13T13:09:31;16.90;;;9.07;;
7525;SDS011;3804;50.860;6.208;2022-10-13T13:12:04;11.17;;;8.33;;
7525;SDS011;3804;50.860;6.208;2022-10-13T13:17:19;15.20;;;8.67;;
7525;SDS011;3804;50.860;6.208;2022-10-13T13:22:47;16.37;;;9.20;;
7525;SDS011;3804;50.860;6.208;2022-10-13T13:25:16;13.53;;;9.10;;
7525;SDS011;3804;50.860;6.208;2022-10-13T13:27:43;14.60;;;9.27;;
7525;SDS011;3804;50.860;6.208;2022-10-13T13:30:15;18.33;;;9.77;;
7525;SDS011;3804;50.860;6.208;2022-10-13T13:32:43;18.53;;;9.20;;
7525;SDS011;3804;50.860;6.208;2022-10-13T13:35:09;15.43;;;10.10;;
7525;SDS011;3804;50.860;6.208;2022-10-13T13:37:37;14.77;;;8.90;;
7525;SDS011;3804;50.860;6.208;2022-10-13T13:40:05;14.17;;;8.67;;
7525;SDS011;3804;50.860;6.208;2022-10-13T13:42:32;17.93;;;8.33;;
7525;SDS011;3804;50.860;6.208;2022-10-13T13:44:59;10.60;;;8.40;;
7525;SDS011;3804;50.860;6.208;2022-10-13T13:47:26;10.93;;;8.30;;
7525;SDS011;3804;50.860;6.208;2022-10-13T13:49:54;14.37;;;8.90;;
7525;SDS011;3804;50.860;6.208;2022-10-13T13:52:22;15.03;;;8.60;;
7525;SDS011;3804;50.860;6.208;2022-10-13T13:54:49;14.30;;;8.30;;
7525;SDS011;3804;50.860;6.208;2022-10-13T13:57:18;15.73;;;8.97;;
7525;SDS011;3804;50.860;6.208;2022-10-13T13:59:46;17.53;;;9.20;;
7525;SDS011;3804;50.860;6.208;2022-10-13T14:02:14;14.03;;;8.90;;
7525;SDS011;3804;50.860;6.208;2022-10-13T14:04:41;11.17;;;7.80;;
7525;SDS011;3804;50.860;6.208;2022-10-13T14:07:08;9.70;;;7.83;;
7525;SDS011;3804;50.860;6.208;2022-10-13T14:09:35;17.43;;;8.13;;
7525;SDS011;3804;50.860;6.208;2022-10-13T14:12:01;13.47;;;8.47;;
7525;SDS011;3804;50.860;6.208;2022-10-13T14:14:29;12.97;;;7.07;;
7525;SDS011;3804;50.860;6.208;2022-10-13T14:16:56;10.73;;;6.80;;
7525;SDS011;3804;50.860;6.208;2022-10-13T14:19:23;8.37;;;6.43;;
7525;SDS011;3804;50.860;6.208;2022-10-13T14:21:49;9.77;;;6.47;;
7525;SDS011;3804;50.860;6.208;2022-10-13T14:24:16;8.60;;;6.57;;
7525;SDS011;3804;50.860;6.208;2022-10-13T14:26:43;12.63;;;6.13;;
7525;SDS011;3804;50.860;6.208;2022-10-13T14:29:10;8.37;;;6.20;;
7525;SDS011;3804;50.860;6.208;2022-10-13T14:31:38;10.67;;;6.70;;
7525;SDS011;3804;50.860;6.208;2022-10-13T14:34:05;7.47;;;6.17;;
7525;SDS011;3804;50.860;6.208;2022-10-13T14:36:31;7.87;;;6.10;;
7525;SDS011;3804;50.860;6.208;2022-10-13T14:38:58;12.13;;;6.13;;
7525;SDS011;3804;50.860;6.208;2022-10-13T14:41:25;10.03;;;6.40;;
7525;SDS011;3804;50.860;6.208;2022-10-13T14:43:55;8.67;;;5.57;;
7525;SDS011;3804;50.860;6.208;2022-10-13T14:46:22;11.37;;;6.30;;
7525;SDS011;3804;50.860;6.208;2022-10-13T14:48:49;8.63;;;6.70;;
7525;SDS011;3804;50.860;6.208;2022-10-13T14:51:16;10.10;;;5.60;;
7525;SDS011;3804;50.860;6.208;2022-10-13T14:53:43;9.07;;;6.70;;
7525;SDS011;3804;50.860;6.208;2022-10-13T14:58:40;10.63;;;6.40;;
7525;SDS011;3804;50.860;6.208;2022-10-13T15:01:07;10.90;;;5.97;;
7525;SDS011;3804;50.860;6.208;2022-10-13T15:03:33;8.77;;;5.77;;
7525;SDS011;3804;50.860;6.208;2022-10-13T15:06:00;10.07;;;6.07;;
7525;SDS011;3804;50.860;6.208;2022-10-13T15:08:28;9.80;;;5.87;;
7525;SDS011;3804;50.860;6.208;2022-10-13T15:10:59;10.57;;;6.70;;
7525;SDS011;3804;50.860;6.208;2022-10-13T15:13:26;10.17;;;6.30;;
7525;SDS011;3804;50.860;6.208;2022-10-13T15:15:56;8.63;;;6.20;;
7525;SDS011;3804;50.860;6.208;2022-10-13T15:18:23;10.87;;;6.40;;
7525;SDS011;3804;50.860;6.208;2022-10-13T15:20:54;9.50;;;6.33;;
7525;SDS011;3804;50.860;6.208;2022-10-13T15:23:21;10.57;;;7.07;;
7525;SDS011;3804;50.860;6.208;2022-10-13T15:25:58;11.80;;;5.70;;
7525;SDS011;3804;50.860;6.208;2022-10-13T15:28:26;7.37;;;5.57;;
7525;SDS011;3804;50.860;6.208;2022-10-13T15:30:53;8.00;;;5.50;;
7525;SDS011;3804;50.860;6.208;2022-10-13T15:33:21;7.70;;;5.60;;
7525;SDS011;3804;50.860;6.208;2022-10-13T15:35:48;11.70;;;6.03;;
7525;SDS011;3804;50.860;6.208;2022-10-13T15:38:15;6.17;;;4.17;;
7525;SDS011;3804;50.860;6.208;2022-10-13T15:40:42;6.10;;;4.47;;
7525;SDS011;3804;50.860;6.208;2022-10-13T15:43:09;10.47;;;4.77;;
7525;SDS011;3804;50.860;6.208;2022-10-13T15:45:36;7.00;;;5.10;;
7525;SDS011;3804;50.860;6.208;2022-10-13T15:48:07;6.77;;;4.77;;
7525;SDS011;3804;50.860;6.208;2022-10-13T15:50:37;7.63;;;5.70;;
7525;SDS011;3804;50.860;6.208;2022-10-13T15:53:04;9.13;;;5.67;;
7525;SDS011;3804;50.860;6.208;2022-10-13T15:55:30;10.40;;;5.90;;
7525;SDS011;3804;50.860;6.208;2022-10-13T15:57:57;10.60;;;6.73;;
7525;SDS011;3804;50.860;6.208;2022-10-13T16:00:24;9.23;;;6.67;;
7525;SDS011;3804;50.860;6.208;2022-10-13T16:02:51;10.63;;;6.83;;
7525;SDS011;3804;50.860;6.208;2022-10-13T16:05:17;11.63;;;7.20;;
7525;SDS011;3804;50.860;6.208;2022-10-13T16:07:44;13.47;;;7.93;;
7525;SDS011;3804;50.860;6.208;2022-10-13T16:10:12;14.33;;;8.80;;
7525;SDS011;3804;50.860;6.208;2022-10-13T16:12:40;14.80;;;9.83;;
7525;SDS011;3804;50.860;6.208;2022-10-13T16:15:14;11.90;;;9.33;;
7525;SDS011;3804;50.860;6.208;2022-10-13T16:17:45;11.73;;;8.73;;
7525;SDS011;3804;50.860;6.208;2022-10-13T16:20:11;11.90;;;8.70;;
7525;SDS011;3804;50.860;6.208;2022-10-13T16:22:38;14.17;;;9.57;;
7525;SDS011;3804;50.860;6.208;2022-10-13T16:25:07;12.83;;;9.30;;
7525;SDS011;3804;50.860;6.208;2022-10-13T16:27:34;14.67;;;9.93;;
7525;SDS011;3804;50.860;6.208;2022-10-13T16:30:03;12.40;;;9.30;;
7525;SDS011;3804;50.860;6.208;2022-10-13T16:32:35;12.13;;;10.20;;
7525;SDS011;3804;50.860;6.208;2022-10-13T16:35:02;14.17;;;9.17;;
7525;SDS011;3804;50.860;6.208;2022-10-13T16:37:29;12.70;;;10.07;;
7525;SDS011;3804;50.860;6.208;2022-10-13T16:39:56;13.03;;;10.40;;
7525;SDS011;3804;50.860;6.208;2022-10-13T16:42:23;11.37;;;8.93;;
7525;SDS011;3804;50.860;6.208;2022-10-13T16:44:50;12.97;;;9.87;;
7525;SDS011;3804;50.860;6.208;2022-10-13T16:47:17;13.80;;;10.43;;
7525;SDS011;3804;50.860;6.208;2022-10-13T16:49:45;17.17;;;11.07;;
7525;SDS011;3804;50.860;6.208;2022-10-13T16:52:13;13.47;;;10.37;;